createdAt,value
2024-02-15T00:01:44.753Z,98108.03
2024-02-15T00:04:12.543Z,98105.56
2024-02-15T00:06:40.297Z,98099.81
2024-02-15T00:09:08.045Z,98099.44
2024-02-15T00:11:35.612Z,98099.19
2024-02-15T00:14:03.237Z,98086.34
2024-02-15T00:16:30.928Z,98094.13
2024-02-15T00:19:01.028Z,98085.75
2024-02-15T00:21:29.110Z,98090.03
2024-02-15T00:23:58.119Z,98088.78
2024-02-15T00:26:25.686Z,98087.56
2024-02-15T00:28:53.685Z,98090.00
2024-02-15T00:31:21.272Z,98081.19
2024-02-15T00:33:48.993Z,98082.84
2024-02-15T00:36:17.308Z,98086.28
2024-02-15T00:38:44.877Z,98085.47
2024-02-15T00:41:12.601Z,98079.06
2024-02-15T00:43:40.560Z,98081.53
2024-02-15T00:46:08.208Z,98091.09
2024-02-15T00:48:35.823Z,98087.06
2024-02-15T00:51:04.431Z,98084.19
2024-02-15T00:53:32.104Z,98088.72
2024-02-15T00:56:00.032Z,98092.56
2024-02-15T00:58:28.470Z,98086.81
2024-02-15T01:00:56.026Z,98084.97
2024-02-15T01:03:24.147Z,98089.47
2024-02-15T01:05:52.957Z,98082.13
2024-02-15T01:08:21.561Z,98082.13
2024-02-15T01:10:49.268Z,98075.34
2024-02-15T01:13:17.104Z,98079.63
2024-02-15T01:15:44.721Z,98085.38
2024-02-15T01:18:12.680Z,98079.03
2024-02-15T01:20:40.358Z,98079.19
2024-02-15T01:23:08.982Z,98080.88
2024-02-15T01:25:36.546Z,98079.22
2024-02-15T01:28:04.333Z,98080.03
2024-02-15T01:30:33.199Z,98080.63
2024-02-15T01:33:00.853Z,98076.72
2024-02-15T01:35:28.930Z,98076.28
2024-02-15T01:37:56.500Z,98077.53
2024-02-15T01:40:24.115Z,98090.78
2024-02-15T01:42:51.620Z,98078.91
2024-02-15T01:45:19.272Z,98071.31
2024-02-15T01:47:50.713Z,98072.53
2024-02-15T01:50:18.906Z,98068.47
2024-02-15T01:52:48.787Z,98067.00
2024-02-15T01:55:19.689Z,98068.38
2024-02-15T01:57:47.408Z,98056.09
2024-02-15T02:00:18.877Z,98065.94
2024-02-15T02:02:48.169Z,98061.59
2024-02-15T02:05:15.672Z,98054.63
2024-02-15T02:07:43.670Z,98051.59
2024-02-15T02:10:15.548Z,98048.28
2024-02-15T02:12:43.188Z,98046.25
2024-02-15T02:15:12.461Z,98047.88
2024-02-15T02:17:41.863Z,98055.41
2024-02-15T02:20:12.447Z,98045.63
2024-02-15T02:22:40.110Z,98050.66
2024-02-15T02:25:09.821Z,98042.88
2024-02-15T02:27:37.711Z,98041.28
2024-02-15T02:30:10.675Z,98050.66
2024-02-15T02:32:40.431Z,98039.06
2024-02-15T02:35:08.562Z,98043.72
2024-02-15T02:37:38.094Z,98036.56
2024-02-15T02:40:09.870Z,98041.28
2024-02-15T02:42:47.325Z,98043.72
2024-02-15T02:45:14.921Z,98050.25
2024-02-15T02:47:42.504Z,98051.06
2024-02-15T02:50:10.493Z,98048.84
2024-02-15T02:52:40.317Z,98047.44
2024-02-15T02:55:09.703Z,98045.78
2024-02-15T02:57:40.956Z,98050.56
2024-02-15T03:00:14.038Z,98044.84
2024-02-15T03:02:41.896Z,98048.53
2024-02-15T03:05:10.068Z,98042.19
2024-02-15T03:07:38.411Z,98046.25
2024-02-15T03:10:09.291Z,98047.47
2024-02-15T03:12:38.181Z,98045.63
2024-02-15T03:15:12.458Z,98050.53
2024-02-15T03:17:44.832Z,98049.09
2024-02-15T03:20:21.519Z,98059.94
2024-02-15T03:22:56.079Z,98044.78
2024-02-15T03:25:26.965Z,98043.97
2024-02-15T03:27:55.891Z,98044.97
2024-02-15T03:30:25.356Z,98046.63
2024-02-15T03:32:54.282Z,98045.19
2024-02-15T03:35:24.092Z,98042.97
2024-02-15T03:37:52.789Z,98048.66
2024-02-15T03:40:21.450Z,98047.06
2024-02-15T03:42:49.347Z,98053.38
2024-02-15T03:45:17.406Z,98054.00
2024-02-15T03:47:45.417Z,98051.09
2024-02-15T03:50:16.210Z,98051.50
2024-02-15T03:52:45.167Z,98054.38
2024-02-15T03:55:13.654Z,98057.25
2024-02-15T03:57:48.234Z,98054.16
2024-02-15T04:00:16.750Z,98054.38
2024-02-15T04:02:44.477Z,98050.47
2024-02-15T04:05:13.814Z,98047.00
2024-02-15T04:07:41.778Z,98047.16
2024-02-15T04:10:10.274Z,98059.44
2024-02-15T04:12:38.101Z,98046.56
2024-02-15T04:15:13.760Z,98053.94
2024-02-15T04:17:43.630Z,98052.25
2024-02-15T04:20:13.656Z,98057.34
2024-02-15T04:22:44.157Z,98054.25
2024-02-15T04:25:18.050Z,98056.50
2024-02-15T04:27:48.190Z,98053.81
2024-02-15T04:30:17.566Z,98059.56
2024-02-15T04:32:46.205Z,98063.78
2024-02-15T04:35:15.005Z,98058.09
2024-02-15T04:37:43.468Z,98055.78
2024-02-15T04:40:11.674Z,98065.63
2024-02-15T04:42:46.615Z,98055.25
2024-02-15T04:45:16.938Z,98062.00
2024-02-15T04:47:47.638Z,98057.03
2024-02-15T04:50:16.514Z,98066.69
2024-02-15T04:52:46.709Z,98061.56
2024-02-15T04:55:14.385Z,98050.09
2024-02-15T04:57:42.024Z,98065.03
2024-02-15T05:00:12.648Z,98066.25
2024-02-15T05:02:42.659Z,98069.03
2024-02-15T05:05:11.304Z,98059.44
2024-02-15T05:07:41.088Z,98069.66
2024-02-15T05:10:10.417Z,98064.31
2024-02-15T05:12:49.586Z,98072.31
2024-02-15T05:15:19.598Z,98071.28
2024-02-15T05:17:49.593Z,98068.84
2024-02-15T05:20:17.750Z,98074.16
2024-02-15T05:22:50.127Z,98073.94
2024-02-15T05:25:30.993Z,98072.94
2024-02-15T05:27:59.019Z,98077.41
2024-02-15T05:30:27.096Z,98074.09
2024-02-15T05:32:56.109Z,98078.63
2024-02-15T05:35:23.968Z,98075.97
2024-02-15T05:37:54.176Z,98076.94
2024-02-15T05:40:22.138Z,98070.03
2024-02-15T05:42:50.686Z,98075.97
2024-02-15T05:45:24.363Z,98074.09
2024-02-15T05:47:53.324Z,98073.66
2024-02-15T05:50:22.468Z,98078.81
2024-02-15T05:52:50.377Z,98079.25
2024-02-15T05:55:18.553Z,98086.69
2024-02-15T05:57:46.626Z,98081.94
2024-02-15T06:00:21.871Z,98084.38
2024-02-15T06:02:51.968Z,98081.56
2024-02-15T06:05:21.371Z,98086.44
2024-02-15T06:07:49.553Z,98088.66
2024-02-15T06:10:17.497Z,98088.91
2024-02-15T06:12:45.286Z,98094.22
2024-02-15T06:15:17.244Z,98099.31
2024-02-15T06:17:46.220Z,98097.03
2024-02-15T06:20:19.831Z,98099.25
2024-02-15T06:22:48.293Z,98103.34
2024-02-15T06:25:16.663Z,98116.50
2024-02-15T06:27:44.440Z,98113.69
2024-02-15T06:30:31.682Z,98116.13
2024-02-15T06:33:18.228Z,98120.03
2024-02-15T06:36:04.566Z,98112.88
2024-02-15T06:38:50.930Z,98120.44
2024-02-15T06:41:21.522Z,98120.19
2024-02-15T06:43:50.083Z,98126.13
2024-02-15T06:46:17.597Z,98129.38
2024-02-15T06:48:46.233Z,98130.22
2024-02-15T06:51:16.824Z,98129.97
2024-02-15T06:53:44.945Z,98136.72
2024-02-15T06:56:13.446Z,98128.72
2024-02-15T06:58:44.202Z,98133.03
2024-02-15T07:01:14.819Z,98129.28
2024-02-15T07:03:42.740Z,98125.81
2024-02-15T07:06:10.542Z,98126.44
2024-02-15T07:08:38.121Z,98124.31
2024-02-15T07:11:05.791Z,98129.97
2024-02-15T07:13:33.427Z,98133.06
2024-02-15T07:16:01.056Z,98133.47
2024-02-15T07:18:29.857Z,98126.06
2024-02-15T07:21:01.054Z,98122.50
2024-02-15T07:23:29.126Z,98121.94
2024-02-15T07:25:56.589Z,98128.38
2024-02-15T07:28:25.085Z,98132.66
2024-02-15T07:30:56.151Z,98130.16
2024-02-15T07:33:25.179Z,98124.59
2024-02-15T07:35:53.371Z,98118.28
2024-02-15T07:38:24.296Z,98112.31
2024-02-15T07:40:51.994Z,98122.81
2024-02-15T07:43:19.450Z,98125.53
2024-02-15T07:45:49.317Z,98120.13
2024-02-15T07:48:17.153Z,98127.69
2024-02-15T07:50:46.072Z,98130.94
2024-02-15T07:53:14.888Z,98124.91
2024-02-15T07:55:43.426Z,98123.31
2024-02-15T07:58:11.252Z,98129.44
2024-02-15T08:00:39.659Z,98133.16
2024-02-15T08:03:08.817Z,98123.22
2024-02-15T08:05:38.096Z,98125.56
2024-02-15T08:08:06.123Z,98119.34
2024-02-15T08:10:35.136Z,98115.16
2024-02-15T08:13:02.735Z,98115.16
2024-02-15T08:15:30.272Z,98113.81
2024-02-15T08:17:57.978Z,98112.53
2024-02-15T08:20:25.605Z,98115.72
2024-02-15T08:22:53.191Z,98109.66
2024-02-15T08:25:20.795Z,98106.69
2024-02-15T08:27:51.262Z,98109.66
2024-02-15T08:30:23.988Z,98107.47
2024-02-15T08:32:56.253Z,98106.06
2024-02-15T08:35:24.590Z,98095.81
2024-02-15T08:37:54.133Z,98093.84
2024-02-15T08:40:27.031Z,98091.38
2024-02-15T08:42:54.956Z,98091.63
2024-02-15T08:45:22.579Z,98085.09
2024-02-15T08:47:54.051Z,98092.56
2024-02-15T08:50:24.408Z,98084.84
2024-02-15T08:52:52.325Z,98089.44
2024-02-15T08:55:21.977Z,98085.97
2024-02-15T08:57:49.602Z,98086.00
2024-02-15T09:00:18.280Z,98082.84
2024-02-15T09:02:54.127Z,98094.22
2024-02-15T09:05:23.595Z,98083.66
2024-02-15T09:07:54.062Z,98095.03
2024-02-15T09:10:23.948Z,98092.75
2024-02-15T09:12:51.864Z,98089.34
2024-02-15T09:15:19.815Z,98097.63
2024-02-15T09:17:48.283Z,98100.94
2024-02-15T09:20:20.142Z,98101.91
2024-02-15T09:22:52.581Z,98113.91
2024-02-15T09:25:20.945Z,98112.03
2024-02-15T09:27:48.472Z,98116.13
2024-02-15T09:30:19.452Z,98109.69
2024-02-15T09:32:47.375Z,98110.28
2024-02-15T09:35:15.515Z,98115.53
2024-02-15T09:37:50.531Z,98120.84
2024-02-15T09:40:19.921Z,98119.38
2024-02-15T09:42:49.538Z,98111.09
2024-02-15T09:45:18.680Z,98115.50
2024-02-15T09:47:46.752Z,98116.31
2024-02-15T09:50:16.749Z,98122.47
2024-02-15T09:52:52.127Z,98133.94
2024-02-15T09:55:19.990Z,98122.25
2024-02-15T09:57:48.455Z,98121.28
2024-02-15T10:00:18.254Z,98118.03
2024-02-15T10:02:49.609Z,98114.19
2024-02-15T10:05:19.078Z,98123.47
2024-02-15T10:07:47.923Z,98121.34
2024-02-15T10:10:27.168Z,98129.16
2024-02-15T10:12:56.236Z,98117.13
2024-02-15T10:15:35.323Z,98125.91
2024-02-15T10:18:10.119Z,98122.31
2024-02-15T10:20:42.618Z,98119.88
2024-02-15T10:23:13.507Z,98113.44
2024-02-15T10:25:42.301Z,98112.38
2024-02-15T10:28:11.775Z,98110.75
2024-02-15T10:30:47.190Z,98119.84
2024-02-15T10:33:44.224Z,98103.78
2024-02-15T10:36:12.873Z,98096.66
2024-02-15T10:38:40.604Z,98102.97
2024-02-15T10:41:13.195Z,98098.84
2024-02-15T10:43:44.757Z,98097.16
2024-02-15T10:46:14.271Z,98102.66
2024-02-15T10:48:42.070Z,98106.56
2024-02-15T10:51:11.832Z,98106.47
2024-02-15T10:53:46.781Z,98101.94
2024-02-15T10:56:23.994Z,98103.31
2024-02-15T10:58:56.515Z,98092.50
2024-02-15T11:01:26.583Z,98085.91
2024-02-15T11:04:04.289Z,98085.69
2024-02-15T11:06:36.576Z,98085.25
2024-02-15T11:09:07.397Z,98080.13
2024-02-15T11:11:36.862Z,98078.81
2024-02-15T11:14:36.218Z,98080.41
2024-02-15T11:17:06.658Z,98088.59
2024-02-15T11:19:37.505Z,98082.44
2024-02-15T11:22:15.749Z,98075.69
2024-02-15T11:24:53.784Z,98076.09
2024-02-15T11:27:33.038Z,98075.50
2024-02-15T11:30:11.354Z,98070.97
2024-02-15T11:32:41.578Z,98074.56
2024-02-15T11:35:17.701Z,98076.44
2024-02-15T11:37:52.539Z,98080.41
2024-02-15T11:40:24.513Z,98072.91
2024-02-15T11:42:58.794Z,98079.78
2024-02-15T11:45:33.206Z,98076.50
2024-02-15T11:48:01.491Z,98071.91
2024-02-15T11:50:29.469Z,98065.59
2024-02-15T11:53:11.671Z,98076.22
2024-02-15T11:55:42.019Z,98068.72
2024-02-15T11:58:11.556Z,98067.06
2024-02-15T12:00:59.940Z,98071.31
2024-02-15T12:04:00.157Z,98069.84
2024-02-15T12:06:51.633Z,98071.22
2024-02-15T12:09:39.654Z,98063.38
2024-02-15T12:12:26.720Z,98068.84
2024-02-15T12:15:23.180Z,98067.88
2024-02-15T12:18:09.669Z,98066.38
2024-02-15T12:20:37.624Z,98056.06
2024-02-15T12:23:08.976Z,98068.66
2024-02-15T12:25:37.548Z,98056.41
2024-02-15T12:28:06.410Z,98061.78
2024-02-15T12:30:38.352Z,98060.50
2024-02-15T12:33:14.792Z,98049.22
2024-02-15T12:35:44.197Z,98051.56
2024-02-15T12:38:18.045Z,98043.34
2024-02-15T12:40:48.198Z,98035.28
2024-02-15T12:43:17.155Z,98041.59
2024-02-15T12:45:44.786Z,98038.22
2024-02-15T12:48:12.831Z,98043.66
2024-02-15T12:50:40.879Z,98041.84
2024-02-15T12:53:09.257Z,98042.94
2024-02-15T12:55:39.406Z,98028.22
2024-02-15T12:58:15.068Z,98026.88
2024-02-15T13:00:42.923Z,98031.47
2024-02-15T13:03:16.641Z,98032.56
2024-02-15T13:05:45.535Z,98035.53
2024-02-15T13:08:16.234Z,98027.75
2024-02-15T13:10:44.302Z,98032.06
2024-02-15T13:13:12.136Z,98035.97
2024-02-15T13:15:40.259Z,98033.97
2024-02-15T13:18:11.805Z,98032.25
2024-02-15T13:20:40.187Z,98033.81
2024-02-15T13:23:10.696Z,98032.78
2024-02-15T13:25:41.184Z,98031.94
2024-02-15T13:28:15.022Z,98039.44
2024-02-15T13:30:46.310Z,98032.50
2024-02-15T13:33:18.057Z,98031.69
2024-02-15T13:35:46.142Z,98034.16
2024-02-15T13:38:24.097Z,98028.56
2024-02-15T13:40:53.309Z,98031.38
2024-02-15T13:43:20.874Z,98028.22
2024-02-15T13:45:49.997Z,98035.97
2024-02-15T13:48:17.866Z,98028.06
2024-02-15T13:50:46.290Z,98025.59
2024-02-15T13:53:15.485Z,98025.38
2024-02-15T13:55:43.180Z,98026.56
2024-02-15T13:58:14.281Z,98030.81
2024-02-15T14:00:45.272Z,98029.81
2024-02-15T14:03:13.572Z,98026.91
2024-02-15T14:05:43.786Z,98028.47
2024-02-15T14:08:12.702Z,98023.63
2024-02-15T14:10:40.417Z,98029.69
2024-02-15T14:13:10.260Z,98030.69
2024-02-15T14:15:42.106Z,98022.00
2024-02-15T14:18:20.085Z,98020.69
2024-02-15T14:20:50.029Z,98028.66
2024-02-15T14:23:17.988Z,98022.72
2024-02-15T14:25:46.559Z,98022.16
2024-02-15T14:28:16.188Z,98023.66
2024-02-15T14:31:02.931Z,98013.22
2024-02-15T14:36:02.350Z,98011.59
2024-02-15T14:38:30.730Z,98010.66
2024-02-15T14:41:01.148Z,98006.34
2024-02-15T14:43:30.117Z,98006.63
2024-02-15T14:45:58.769Z,98006.78
2024-02-15T14:48:27.562Z,98006.56
2024-02-15T14:50:57.720Z,98009.41
2024-02-15T14:53:25.725Z,98005.84
2024-02-15T14:55:53.860Z,98011.28
2024-02-15T14:58:23.793Z,98008.34
2024-02-15T15:00:51.729Z,98001.50
2024-02-15T15:03:21.822Z,97994.63
2024-02-15T15:06:08.701Z,97996.69
2024-02-15T15:08:55.042Z,97993.09
2024-02-15T15:11:41.448Z,97998.97
2024-02-15T15:14:09.354Z,98003.59
2024-02-15T15:16:36.908Z,97999.13
2024-02-15T15:19:05.056Z,97991.09
2024-02-15T15:21:33.514Z,97998.44
2024-02-15T15:24:01.212Z,97993.88
2024-02-15T15:26:28.835Z,97995.53
2024-02-15T15:28:58.213Z,97995.94
2024-02-15T15:31:27.359Z,97992.13
2024-02-15T15:33:57.041Z,97987.38
2024-02-15T15:36:25.317Z,97986.41
2024-02-15T15:38:53.805Z,97981.31
2024-02-15T15:41:23.871Z,97987.16
2024-02-15T15:43:52.877Z,97996.69
2024-02-15T15:46:20.325Z,97997.81
2024-02-15T15:48:48.923Z,97988.66
2024-02-15T15:51:16.960Z,97987.91
2024-02-15T15:53:46.721Z,97981.25
2024-02-15T15:56:15.792Z,97981.41
2024-02-15T15:58:46.240Z,97983.19
2024-02-15T16:01:14.918Z,97982.00
2024-02-15T16:03:43.347Z,97988.94
2024-02-15T16:06:13.419Z,97988.78
2024-02-15T16:08:41.193Z,97982.88
2024-02-15T16:11:08.926Z,97981.28
2024-02-15T16:13:38.332Z,97983.53
2024-02-15T16:16:06.945Z,97982.75
2024-02-15T16:18:34.639Z,97976.63
2024-02-15T16:21:02.233Z,97977.41
2024-02-15T16:23:29.884Z,97982.78
2024-02-15T16:25:59.464Z,97989.06
2024-02-15T16:28:27.121Z,97986.59
2024-02-15T16:30:54.789Z,97980.53
2024-02-15T16:33:22.757Z,97980.44
2024-02-15T16:35:50.582Z,97976.59
2024-02-15T16:38:18.240Z,97975.47
2024-02-15T16:40:46.485Z,97986.03
2024-02-15T16:43:13.965Z,97987.41
2024-02-15T16:45:43.020Z,97991.13
2024-02-15T16:48:10.864Z,97993.31
2024-02-15T16:50:42.599Z,98001.78
2024-02-15T16:53:10.617Z,98007.25
2024-02-15T16:55:38.171Z,98009.13
2024-02-15T16:58:09.508Z,98009.81
2024-02-15T17:00:39.886Z,98019.47
2024-02-15T17:03:08.066Z,98011.19
2024-02-15T17:05:39.624Z,98006.31
2024-02-15T17:08:08.531Z,98017.91
2024-02-15T17:10:37.075Z,98008.06
2024-02-15T17:13:07.390Z,98005.84
2024-02-15T17:15:36.481Z,98004.31
2024-02-15T17:18:05.184Z,97997.25
2024-02-15T17:20:33.080Z,98001.78
2024-02-15T17:23:00.608Z,98001.66
2024-02-15T17:25:28.707Z,98000.50
2024-02-15T17:28:02.454Z,98006.66
2024-02-15T17:30:30.131Z,98011.28
2024-02-15T17:32:57.885Z,98001.03
2024-02-15T17:35:26.768Z,98005.72
2024-02-15T17:37:55.686Z,98006.03
2024-02-15T17:40:23.337Z,98003.25
2024-02-15T17:42:50.824Z,98003.34
2024-02-15T17:45:18.696Z,98005.88
2024-02-15T17:47:47.481Z,98001.56
2024-02-15T17:50:17.163Z,98011.53
2024-02-15T17:52:45.729Z,98016.53
2024-02-15T17:55:15.170Z,98002.47
2024-02-15T17:57:42.712Z,98009.28
2024-02-15T18:00:16.374Z,98010.31
2024-02-15T18:02:51.267Z,98010.19
2024-02-15T18:05:21.472Z,98007.50
2024-02-15T18:07:50.577Z,97999.31
2024-02-15T18:10:22.893Z,98000.56
2024-02-15T18:12:50.920Z,98004.50
2024-02-15T18:15:25.916Z,98003.69
2024-02-15T18:17:57.333Z,97993.75
2024-02-15T18:20:26.945Z,97991.09
2024-02-15T18:22:55.192Z,97982.16
2024-02-15T18:25:22.970Z,97984.81
2024-02-15T18:27:50.817Z,97987.56
2024-02-15T18:30:20.192Z,97982.59
2024-02-15T18:32:49.575Z,97985.34
2024-02-15T18:35:18.784Z,97980.69
2024-02-15T18:37:48.178Z,97972.28
2024-02-15T18:40:22.954Z,97972.06
2024-02-15T18:42:55.663Z,97973.13
2024-02-15T18:45:23.598Z,97980.59
2024-02-15T18:47:52.718Z,97982.03
2024-02-15T18:50:23.285Z,97985.13
2024-02-15T18:52:56.224Z,97980.44
2024-02-15T18:55:29.331Z,97981.59
2024-02-15T18:57:57.757Z,97986.38
2024-02-15T19:00:34.304Z,97991.34
2024-02-15T19:03:05.797Z,97983.13
2024-02-15T19:05:33.671Z,97984.38
2024-02-15T19:08:01.314Z,97981.13
2024-02-15T19:10:28.856Z,97982.97
2024-02-15T19:12:56.468Z,97981.13
2024-02-15T19:15:27.870Z,97988.28
2024-02-15T19:17:55.621Z,97974.44
2024-02-15T19:20:23.350Z,97972.53
2024-02-15T19:22:50.935Z,97973.78
2024-02-15T19:25:22.439Z,97972.38
2024-02-15T19:27:51.271Z,97968.16
2024-02-15T19:30:22.006Z,97964.09
2024-02-15T19:32:51.081Z,97964.28
2024-02-15T19:35:20.352Z,97962.44
2024-02-15T19:37:48.492Z,97963.03
2024-02-15T19:40:21.091Z,97969.34
2024-02-15T19:42:50.508Z,97964.28
2024-02-15T19:45:22.400Z,97960.44
2024-02-15T19:47:52.875Z,97953.09
2024-02-15T19:50:27.839Z,97957.63
2024-02-15T19:52:56.029Z,97947.19
2024-02-15T19:55:24.054Z,97954.59
2024-02-15T19:57:52.120Z,97958.06
2024-02-15T20:00:20.342Z,97958.81
2024-02-15T20:02:49.913Z,97955.19
2024-02-15T20:05:18.471Z,97950.75
2024-02-15T20:07:46.395Z,97945.72
2024-02-15T20:10:14.081Z,97950.06
2024-02-15T20:12:41.799Z,97954.25
2024-02-15T20:15:10.060Z,97966.06
2024-02-15T20:17:37.979Z,97978.66
2024-02-15T20:20:06.182Z,97975.31
2024-02-15T20:22:33.761Z,97976.28
2024-02-15T20:25:06.232Z,97973.78
2024-02-15T20:27:34.560Z,97970.81
2024-02-15T20:30:02.597Z,97972.88
2024-02-15T20:32:30.524Z,97978.81
2024-02-15T20:35:00.079Z,97972.50
2024-02-15T20:37:27.830Z,97972.28
2024-02-15T20:39:55.309Z,97958.44
2024-02-15T20:42:23.096Z,97956.19
2024-02-15T20:44:50.865Z,97954.16
2024-02-15T20:47:20.499Z,97954.84
2024-02-15T20:49:48.656Z,97951.75
2024-02-15T20:52:16.402Z,97950.78
2024-02-15T20:54:44.950Z,97955.13
2024-02-15T20:57:16.933Z,97955.72
2024-02-15T20:59:44.663Z,97954.53
2024-02-15T21:02:12.610Z,97958.81
2024-02-15T21:04:40.277Z,97958.00
2024-02-15T21:07:09.321Z,97952.03
2024-02-15T21:09:38.594Z,97953.09
2024-02-15T21:12:08.108Z,97950.91
2024-02-15T21:14:36.100Z,97949.44
2024-02-15T21:17:04.146Z,97945.38
2024-02-15T21:19:31.663Z,97939.75
2024-02-15T21:21:59.306Z,97939.06
2024-02-15T21:24:27.714Z,97937.66
2024-02-15T21:26:57.344Z,97919.69
2024-02-15T21:29:25.056Z,97920.06
2024-02-15T21:31:52.704Z,97922.72
2024-02-15T21:34:21.933Z,97917.09
2024-02-15T21:36:49.653Z,97910.47
2024-02-15T21:39:17.625Z,97906.88
2024-02-15T21:41:47.601Z,97916.13
2024-02-15T21:44:15.847Z,97914.69
2024-02-15T21:46:43.489Z,97906.88
2024-02-15T21:49:11.463Z,97906.44
2024-02-15T21:51:39.242Z,97905.03
2024-02-15T21:54:06.878Z,97898.50
2024-02-15T21:56:34.412Z,97894.66
2024-02-15T21:59:02.006Z,97895.69
2024-02-15T22:01:31.759Z,97893.81
2024-02-15T22:03:59.768Z,97890.34
2024-02-15T22:06:27.293Z,97886.63
2024-02-15T22:08:54.964Z,97872.28
2024-02-15T22:11:23.515Z,97879.47
2024-02-15T22:13:51.130Z,97880.44
2024-02-15T22:16:18.846Z,97873.00
2024-02-15T22:18:46.731Z,97872.03
2024-02-15T22:21:14.320Z,97858.47
2024-02-15T22:23:42.803Z,97858.44
2024-02-15T22:26:17.211Z,97861.63
2024-02-15T22:28:44.702Z,97854.69
2024-02-15T22:31:19.802Z,97851.47
2024-02-15T22:33:47.764Z,97848.00
2024-02-15T22:36:26.215Z,97849.69
2024-02-15T22:38:54.188Z,97860.69
2024-02-15T22:41:22.593Z,97844.03
2024-02-15T22:43:50.301Z,97843.75
2024-02-15T22:46:17.915Z,97848.25
2024-02-15T22:48:46.590Z,97846.38
2024-02-15T22:51:14.336Z,97842.22
2024-02-15T22:53:46.001Z,97840.41
2024-02-15T22:56:14.589Z,97836.84
2024-02-15T22:58:45.935Z,97841.81
2024-02-15T23:01:14.302Z,97842.56
2024-02-15T23:03:42.183Z,97844.31
2024-02-15T23:06:14.037Z,97845.25
2024-02-15T23:08:41.935Z,97845.13
2024-02-15T23:11:09.804Z,97847.81
2024-02-15T23:13:40.389Z,97846.16
2024-02-15T23:16:10.649Z,97848.00
2024-02-15T23:18:39.045Z,97843.13
2024-02-15T23:21:06.714Z,97848.00
2024-02-15T23:23:35.678Z,97842.34
2024-02-15T23:26:03.617Z,97847.66
2024-02-15T23:28:31.333Z,97847.31
2024-02-15T23:30:58.812Z,97849.59
2024-02-15T23:33:26.367Z,97846.69
2024-02-15T23:36:12.767Z,97852.28
2024-02-15T23:38:59.049Z,97854.25
2024-02-15T23:41:26.625Z,97853.22
2024-02-15T23:43:54.151Z,97847.50
2024-02-15T23:46:24.732Z,97853.75
2024-02-15T23:48:53.240Z,97846.91
2024-02-15T23:51:20.890Z,97844.44
2024-02-15T23:53:48.466Z,97840.59
2024-02-15T23:56:15.960Z,97843.72
2024-02-15T23:58:43.550Z,97846.44
